createdAt,value
2023-03-23T16:00:18.134Z,87.40
2023-03-23T16:02:43.854Z,88.00
2023-03-23T16:05:09.077Z,89.10
2023-03-23T16:07:35.411Z,89.70
2023-03-23T16:10:00.434Z,90.20
2023-03-23T16:12:25.036Z,90.40
2023-03-23T16:14:49.662Z,90.50
2023-03-23T16:17:21.933Z,90.70
2023-03-23T16:19:46.449Z,91.20
2023-03-23T16:22:11.698Z,91.00
2023-03-23T16:24:38.793Z,91.10
2023-03-23T16:27:05.646Z,91.40
2023-03-23T16:31:58.775Z,91.50
2023-03-23T16:34:23.430Z,91.60
2023-03-23T16:36:47.892Z,91.60
2023-03-23T16:39:13.809Z,91.80
2023-03-23T16:41:41.219Z,91.80
2023-03-23T16:44:06.404Z,92.00
2023-03-23T16:46:32.199Z,92.00
2023-03-23T16:48:56.966Z,92.30
2023-03-23T16:51:21.393Z,92.40
2023-03-23T16:53:46.012Z,92.50
2023-03-23T16:56:10.698Z,92.60
2023-03-23T16:58:36.936Z,92.70
2023-03-23T17:01:05.971Z,92.80
2023-03-23T17:03:31.827Z,92.80
2023-03-23T17:05:56.411Z,92.80
2023-03-23T17:08:21.557Z,92.90
2023-03-23T17:10:46.900Z,92.90
2023-03-23T17:13:12.035Z,93.00
2023-03-23T17:15:40.636Z,93.10
2023-03-23T17:18:06.526Z,93.20
2023-03-23T17:20:34.885Z,93.20
2023-03-23T17:23:02.669Z,93.30
2023-03-23T17:25:27.805Z,93.20
2023-03-23T17:27:52.409Z,93.30
2023-03-23T17:30:18.378Z,93.50
2023-03-23T17:32:47.629Z,93.50
2023-03-23T17:35:12.290Z,93.50
2023-03-23T17:37:38.025Z,93.60
2023-03-23T17:40:03.475Z,93.70
2023-03-23T17:42:28.271Z,93.60
2023-03-23T17:44:58.958Z,93.60
2023-03-23T17:47:23.982Z,93.80
2023-03-23T17:49:49.851Z,94.00
2023-03-23T17:52:14.570Z,94.20
2023-03-23T17:54:39.468Z,94.30
2023-03-23T17:57:05.256Z,94.20
2023-03-23T17:59:30.423Z,94.30
2023-03-23T18:01:55.222Z,94.40
2023-03-23T18:04:20.262Z,94.20
2023-03-23T18:06:47.672Z,94.40
2023-03-23T18:09:12.277Z,94.40
2023-03-23T18:11:36.857Z,94.20
2023-03-23T18:14:03.327Z,94.40
2023-03-23T18:16:28.659Z,94.10
2023-03-23T18:18:56.499Z,94.30
2023-03-23T18:21:24.067Z,94.30
2023-03-23T18:23:58.793Z,94.30
2023-03-23T18:26:24.680Z,94.40
2023-03-23T18:28:50.623Z,94.50
2023-03-23T18:31:17.174Z,94.60
2023-03-23T18:33:44.973Z,94.60
2023-03-23T18:36:10.658Z,94.70
2023-03-23T18:38:38.122Z,95.10
2023-03-23T18:41:07.815Z,95.50
2023-03-23T18:43:32.405Z,95.10
2023-03-23T18:45:59.972Z,95.10
2023-03-23T18:48:25.390Z,95.40
2023-03-23T18:50:50.436Z,95.60
2023-03-23T18:53:16.107Z,95.50
2023-03-23T18:55:40.830Z,95.50
2023-03-23T18:58:06.835Z,95.70
2023-03-23T19:00:33.861Z,96.00
2023-03-23T19:03:00.902Z,96.00
2023-03-23T19:05:25.750Z,96.10
2023-03-23T19:07:53.198Z,96.30
2023-03-23T19:10:18.296Z,96.40
2023-03-23T19:12:47.230Z,96.50
2023-03-23T19:15:15.215Z,96.30
2023-03-23T19:17:39.947Z,96.60
2023-03-23T19:20:13.599Z,96.60
2023-03-23T19:22:41.878Z,96.60
2023-03-23T19:25:08.244Z,96.60
2023-03-23T19:27:32.813Z,96.90
2023-03-23T19:30:00.488Z,96.90
2023-03-23T19:32:26.441Z,96.70
2023-03-23T19:34:51.514Z,96.80
2023-03-23T19:37:19.297Z,97.00
2023-03-23T19:39:44.563Z,97.00
2023-03-23T19:42:09.773Z,97.10
2023-03-23T19:44:34.928Z,96.90
2023-03-23T19:46:59.911Z,96.80
2023-03-23T19:49:26.220Z,97.00
2023-03-23T19:51:52.569Z,97.30
2023-03-23T19:54:37.054Z,97.00
2023-03-23T19:57:02.354Z,96.90
2023-03-23T19:59:26.815Z,97.00
2023-03-23T20:01:51.844Z,97.00
2023-03-23T20:04:19.816Z,97.20
2023-03-23T20:06:46.328Z,97.50
2023-03-23T20:09:10.869Z,97.70
2023-03-23T20:11:40.358Z,97.70
2023-03-23T20:14:05.689Z,97.70
2023-03-23T20:16:32.941Z,97.90
2023-03-23T20:19:00.114Z,98.10
2023-03-23T20:21:25.932Z,98.60
2023-03-23T20:23:56.337Z,98.60
2023-03-23T20:26:25.922Z,98.70
2023-03-23T20:28:52.335Z,98.50
2023-03-23T20:31:23.918Z,98.60
2023-03-23T20:34:01.108Z,98.30
2023-03-23T20:36:29.859Z,98.60
2023-03-23T20:39:10.035Z,98.80
2023-03-23T20:41:36.311Z,98.90
2023-03-23T20:44:00.930Z,98.70
2023-03-23T20:46:31.119Z,98.60
2023-03-23T20:48:58.144Z,98.80
2023-03-23T20:51:22.784Z,99.00
2023-03-23T20:53:48.590Z,99.10
2023-03-23T20:56:14.483Z,99.10
2023-03-23T20:58:43.191Z,99.20
2023-03-23T21:01:10.893Z,99.50
2023-03-23T21:03:40.345Z,99.50
2023-03-23T21:06:08.793Z,99.40
2023-03-23T21:08:38.046Z,99.50
2023-03-23T21:11:03.017Z,99.80
2023-03-23T21:13:43.101Z,99.80
2023-03-23T21:16:10.804Z,99.90
2023-03-23T21:18:36.856Z,99.80
2023-03-23T21:21:11.318Z,99.80
2023-03-23T21:23:35.986Z,99.90
2023-03-23T21:26:02.529Z,99.90
2023-03-23T21:28:28.541Z,99.90
2023-03-23T21:30:54.727Z,99.90
2023-03-23T21:33:20.128Z,99.90
2023-03-23T21:35:45.042Z,99.90
2023-03-23T21:38:14.243Z,99.90
2023-03-23T21:40:38.689Z,99.90
2023-03-23T21:43:03.239Z,99.90
2023-03-23T21:45:29.038Z,99.90
2023-03-23T21:47:57.182Z,99.90
2023-03-23T21:50:22.267Z,99.90
2023-03-23T21:52:51.000Z,99.90
2023-03-23T21:55:16.790Z,99.90
2023-03-23T21:57:42.473Z,99.90
2023-03-23T22:00:13.901Z,99.90
2023-03-23T22:02:39.165Z,99.90
2023-03-23T22:05:05.407Z,99.90
2023-03-23T22:07:31.536Z,99.90
2023-03-23T22:09:56.650Z,99.90
2023-03-23T22:12:21.809Z,99.90
2023-03-23T22:14:46.656Z,99.90
2023-03-23T22:17:11.838Z,99.90
2023-03-23T22:19:36.730Z,99.90
2023-03-23T22:22:04.088Z,99.90
2023-03-23T22:24:32.033Z,99.90
2023-03-23T22:26:56.632Z,99.90
2023-03-23T22:29:21.610Z,99.90
2023-03-23T22:31:46.881Z,99.90
2023-03-23T22:34:12.534Z,99.90
2023-03-23T22:36:37.210Z,99.90
2023-03-23T22:39:04.032Z,99.90
2023-03-23T22:41:30.559Z,99.90
2023-03-23T22:43:55.456Z,99.90
2023-03-23T22:46:20.660Z,99.90
2023-03-23T22:48:45.820Z,99.90
2023-03-23T22:51:11.240Z,99.90
2023-03-23T22:53:35.886Z,99.90
2023-03-23T22:56:01.946Z,99.90
2023-03-23T22:58:27.493Z,99.90
2023-03-23T23:00:58.251Z,99.90
2023-03-23T23:03:24.939Z,99.90
2023-03-23T23:05:51.994Z,99.90
2023-03-23T23:08:18.165Z,99.90
2023-03-23T23:10:44.739Z,99.90
2023-03-23T23:13:12.053Z,99.90
2023-03-23T23:15:37.200Z,99.90
2023-03-23T23:18:01.945Z,99.90
2023-03-23T23:20:26.532Z,99.90
2023-03-23T23:22:52.406Z,99.90
2023-03-23T23:25:17.284Z,99.90
2023-03-23T23:27:41.904Z,99.90
2023-03-23T23:30:10.075Z,99.90
2023-03-23T23:32:37.072Z,99.90
2023-03-23T23:35:06.469Z,99.90
2023-03-23T23:37:31.107Z,99.90
2023-03-23T23:40:16.514Z,99.90
2023-03-23T23:42:41.091Z,99.90
2023-03-23T23:45:10.328Z,99.90
2023-03-23T23:47:35.128Z,99.90
2023-03-23T23:49:59.650Z,99.90
2023-03-23T23:52:29.813Z,99.90
2023-03-23T23:54:54.432Z,99.90
2023-03-23T23:57:19.071Z,99.90
2023-03-23T23:59:46.204Z,99.90
